createdAt,value
2022-08-04T00:00:11.857Z,93.86
2022-08-04T00:01:12.202Z,93.86
2022-08-04T00:02:12.697Z,94.06
2022-08-04T00:03:12.930Z,94.06
2022-08-04T00:04:13.427Z,93.76
2022-08-04T00:05:13.330Z,94.24
2022-08-04T00:06:14.229Z,94.24
2022-08-04T00:07:14.865Z,94.24
2022-08-04T00:08:15.450Z,94.73
2022-08-04T00:09:16.047Z,95.02
2022-08-04T00:10:16.080Z,94.73
2022-08-04T00:11:21.035Z,94.54
2022-08-04T00:12:16.931Z,94.54
2022-08-04T00:13:17.540Z,94.73
2022-08-04T00:14:17.746Z,95.11
2022-08-04T00:15:22.009Z,95.11
2022-08-04T00:16:18.915Z,95.31
2022-08-04T00:17:19.909Z,95.5
2022-08-04T00:18:20.358Z,95.5
2022-08-04T00:19:20.856Z,95.11
2022-08-04T00:20:21.318Z,95.5
2022-08-04T00:21:21.815Z,95.21
2022-08-04T00:22:22.138Z,95.89
2022-08-04T00:23:22.335Z,95.89
2022-08-04T00:24:21.815Z,95.5
2022-08-04T00:25:22.414Z,95.98
2022-08-04T00:26:22.917Z,96.17
2022-08-04T00:27:23.823Z,96.17
2022-08-04T00:28:24.587Z,95.69
2022-08-04T00:29:24.785Z,95.89
2022-08-04T00:30:25.500Z,95.98
2022-08-04T00:31:59.800Z,95.69
2022-08-04T00:32:39.891Z,96.08
2022-08-04T00:33:27.825Z,96.37
2022-08-04T00:34:28.375Z,96.12
2022-08-04T00:35:29.380Z,95.89
2022-08-04T00:36:30.606Z,96.32
2022-08-04T00:37:30.499Z,96.27
2022-08-04T00:38:31.715Z,96.12
2022-08-04T00:39:31.422Z,96.12
2022-08-04T00:40:34.490Z,96.12
2022-08-04T00:41:32.689Z,96.8
2022-08-04T00:42:33.847Z,96.12
2022-08-04T00:43:34.729Z,96.89
2022-08-04T00:44:34.628Z,96.42
2022-08-04T00:46:16.938Z,96.89
2022-08-04T00:46:34.662Z,96.12
2022-08-04T00:47:35.283Z,96.8
2022-08-04T00:48:36.489Z,96.7
2022-08-04T00:49:37.415Z,96.61
2022-08-04T00:50:38.132Z,96.61
2022-08-04T00:51:39.079Z,96.89
2022-08-04T00:52:39.626Z,97.57
2022-08-04T00:53:40.087Z,97.38
2022-08-04T00:54:40.303Z,97.28
2022-08-04T00:55:41.658Z,96.89
2022-08-04T00:56:42.581Z,97.19
2022-08-04T00:57:43.311Z,96.99
2022-08-04T00:58:43.526Z,97.09
2022-08-04T00:59:43.753Z,97.09
2022-08-04T01:00:43.628Z,97.57
2022-08-04T01:01:44.595Z,97.86
2022-08-04T01:02:45.201Z,97.57
2022-08-04T01:03:46.416Z,97.19
2022-08-04T01:04:46.319Z,97.47
2022-08-04T01:05:47.302Z,97.57
2022-08-04T01:06:50.703Z,98.15
2022-08-04T01:07:48.480Z,97.47
2022-08-04T01:08:48.704Z,97.76
2022-08-04T01:09:48.710Z,97.38
2022-08-04T01:10:49.300Z,97.67
2022-08-04T01:12:02.572Z,97.57
2022-08-04T01:12:50.068Z,97.57
2022-08-04T01:13:50.275Z,98.34
2022-08-04T01:14:50.498Z,98.15
2022-08-04T01:16:06.081Z,97.19
2022-08-04T01:16:51.000Z,97.28
2022-08-04T01:17:52.223Z,97.57
2022-08-04T01:18:53.150Z,97.38
2022-08-04T01:19:53.069Z,97.57
2022-08-04T01:20:53.187Z,98.05
2022-08-04T01:21:53.828Z,98.34
2022-08-04T01:22:54.753Z,97.86
2022-08-04T01:23:55.671Z,97.76
2022-08-04T01:24:56.076Z,98.15
2022-08-04T01:25:56.862Z,97.86
2022-08-04T01:27:03.848Z,98.05
2022-08-04T01:27:58.010Z,97.86
2022-08-04T01:28:58.206Z,98.54
2022-08-04T01:30:00.829Z,98.15
2022-08-04T01:30:59.939Z,97.57
2022-08-04T01:31:59.906Z,97.86
2022-08-04T01:33:01.093Z,98.15
2022-08-04T01:34:08.831Z,97.96
2022-08-04T01:35:02.338Z,98.15
2022-08-04T01:36:02.952Z,97.96
2022-08-04T01:37:03.062Z,98.49
2022-08-04T01:38:18.061Z,98.49
2022-08-04T01:39:03.405Z,98.29
2022-08-04T01:40:04.276Z,98.39
2022-08-04T01:41:05.018Z,98.97
2022-08-04T01:42:09.590Z,98.49
2022-08-04T01:43:06.828Z,98.87
2022-08-04T01:44:07.034Z,98.77
2022-08-04T01:45:08.240Z,99.16
2022-08-04T01:46:08.443Z,98.92
2022-08-04T01:47:08.658Z,98.97
2022-08-04T01:48:09.200Z,98.87
2022-08-04T01:49:09.817Z,98.68
2022-08-04T01:50:10.515Z,99.16
2022-08-04T01:51:10.665Z,99.16
2022-08-04T01:52:11.296Z,99.64
2022-08-04T01:53:11.493Z,99.64
2022-08-04T01:54:11.411Z,99.16
2022-08-04T01:55:12.108Z,99.64
2022-08-04T01:56:12.310Z,99.44
2022-08-04T01:57:44.297Z,99.64
2022-08-04T01:58:13.917Z,99.35
2022-08-04T01:59:14.864Z,99.35
2022-08-04T02:00:15.090Z,99.44
2022-08-04T02:01:16.113Z,99.44
2022-08-04T02:02:16.576Z,99.74
2022-08-04T02:03:17.475Z,99.74
2022-08-04T02:04:31.769Z,98.97
2022-08-04T02:06:09.087Z,99.64
2022-08-04T02:06:32.585Z,99.35
2022-08-04T02:07:33.183Z,99.06
2022-08-04T02:08:33.849Z,99.84
2022-08-04T02:09:34.341Z,99.99
2022-08-04T02:10:35.165Z,99.84
2022-08-04T02:11:35.905Z,99.98
2022-08-04T02:12:36.395Z,99.93
2022-08-04T02:13:36.605Z,99.78
2022-08-04T02:14:36.798Z,99.99
2022-08-04T02:15:37.739Z,99.99
2022-08-04T02:16:38.711Z,99.74
2022-08-04T02:17:38.940Z,99.93
2022-08-04T02:18:39.135Z,99.93
2022-08-04T02:19:39.637Z,99.78
2022-08-04T02:20:39.831Z,99.74
2022-08-04T02:21:48.071Z,99.84
2022-08-04T02:22:41.567Z,99.99
2022-08-04T02:23:41.854Z,99.93
2022-08-04T02:24:43.053Z,99.93
2022-08-04T02:25:43.970Z,99.93
2022-08-04T02:26:44.891Z,99.74
2022-08-04T02:28:06.261Z,99.99
2022-08-04T02:28:45.757Z,99.99
2022-08-04T02:29:46.098Z,99.84
2022-08-04T02:30:46.290Z,99.88
2022-08-04T02:31:47.618Z,99.98
2022-08-04T02:32:48.537Z,99.84
2022-08-04T02:33:49.469Z,99.93
2022-08-04T02:34:50.419Z,99.35
2022-08-04T02:35:51.098Z,99.3
2022-08-04T02:36:52.057Z,99.99
2022-08-04T02:37:52.251Z,99.54
2022-08-04T02:38:52.569Z,99.16
2022-08-04T02:39:54.478Z,99.98
2022-08-04T02:40:53.447Z,99.99
2022-08-04T02:41:53.795Z,99.21
2022-08-04T02:42:54.738Z,99.35
2022-08-04T02:43:58.275Z,99.99
2022-08-04T02:44:56.498Z,99.16
2022-08-04T02:45:57.181Z,99.35
2022-08-04T02:46:57.806Z,99.35
2022-08-04T02:48:35.072Z,99.54
2022-08-04T02:48:59.569Z,99.59
2022-08-04T02:50:02.776Z,99.44
2022-08-04T02:50:59.977Z,99.54
2022-08-04T02:52:00.969Z,99.3
2022-08-04T02:53:01.468Z,99.64
2022-08-04T02:54:02.500Z,99.21
2022-08-04T02:55:02.712Z,99.26
2022-08-04T02:56:02.932Z,99.64
2022-08-04T02:57:04.348Z,99.11
2022-08-04T02:58:03.694Z,99.35
2022-08-04T02:59:04.788Z,99.54
2022-08-04T03:00:05.717Z,99.64
2022-08-04T03:01:05.787Z,99.64
2022-08-04T03:02:06.304Z,99.16
2022-08-04T03:03:07.227Z,99.54
2022-08-04T03:04:08.124Z,99.35
2022-08-04T03:05:09.127Z,99.44
2022-08-04T03:06:15.277Z,99.74
2022-08-04T03:07:14.359Z,99.49
2022-08-04T03:08:10.311Z,99.3
2022-08-04T03:09:11.115Z,99.49
2022-08-04T03:10:11.742Z,99.59
2022-08-04T03:11:12.790Z,99.49
2022-08-04T03:12:13.790Z,99.69
2022-08-04T03:13:14.989Z,99.59
2022-08-04T03:14:15.747Z,99.21
2022-08-04T03:15:15.968Z,99.54
2022-08-04T03:16:16.303Z,99.99
2022-08-04T03:17:17.561Z,99.88
2022-08-04T03:18:17.970Z,99.99
2022-08-04T03:19:18.167Z,98.97
2022-08-04T03:20:19.126Z,99.3
2022-08-04T03:21:19.767Z,99.3
2022-08-04T03:22:21.087Z,99.3
2022-08-04T03:23:21.411Z,99.49
2022-08-04T03:24:25.643Z,99.4
2022-08-04T03:25:22.292Z,99.4
2022-08-04T03:26:22.488Z,99.49
2022-08-04T03:27:23.763Z,99.21
2022-08-04T03:28:24.700Z,99.06
2022-08-04T03:29:41.812Z,99.4
2022-08-04T03:30:26.316Z,99.3
2022-08-04T03:31:27.237Z,99.88
2022-08-04T03:32:27.530Z,99.69
2022-08-04T03:33:27.723Z,99.88
2022-08-04T03:34:28.216Z,99.98
2022-08-04T03:35:28.830Z,99.99
2022-08-04T03:36:36.743Z,99.59
2022-08-04T03:37:29.649Z,99.59
2022-08-04T03:38:29.873Z,99.99
2022-08-04T03:39:30.944Z,99.99
2022-08-04T03:40:31.550Z,99.99
2022-08-04T03:42:11.154Z,99.99
2022-08-04T03:43:04.191Z,99.99
2022-08-04T03:44:08.525Z,99.99
2022-08-04T03:45:28.440Z,99.99
2022-08-04T03:46:09.939Z,99.99
2022-08-04T03:47:10.440Z,99.99
2022-08-04T03:48:11.345Z,99.99
2022-08-04T03:49:11.540Z,99.99
2022-08-04T03:50:11.464Z,99.99
2022-08-04T03:51:32.671Z,99.99
2022-08-04T03:52:12.911Z,99.99
2022-08-04T03:53:13.084Z,99.99
2022-08-04T03:54:14.278Z,99.99
2022-08-04T03:55:14.492Z,99.99
2022-08-04T03:56:14.993Z,99.99
2022-08-04T03:57:16.324Z,99.99
2022-08-04T03:58:15.727Z,99.99
2022-08-04T03:59:16.459Z,99.99
2022-08-04T04:00:16.879Z,99.99
2022-08-04T04:01:18.906Z,99.99
2022-08-04T04:02:17.812Z,99.99
2022-08-04T04:03:33.964Z,99.99
2022-08-04T04:04:18.186Z,99.99
2022-08-04T04:05:18.316Z,99.99
2022-08-04T04:06:20.550Z,99.99
2022-08-04T04:07:21.685Z,99.99
2022-08-04T04:08:24.554Z,99.99
2022-08-04T04:09:21.590Z,99.99
2022-08-04T04:10:26.722Z,99.99
2022-08-04T04:11:21.911Z,99.99
2022-08-04T04:12:22.838Z,99.99
2022-08-04T04:13:23.546Z,99.99
2022-08-04T04:14:24.047Z,99.99
2022-08-04T04:15:23.973Z,99.99
2022-08-04T04:16:25.019Z,99.99
2022-08-04T04:17:25.990Z,99.99
2022-08-04T04:18:26.184Z,99.99
2022-08-04T04:19:26.076Z,99.99
2022-08-04T04:20:27.296Z,99.99
2022-08-04T04:21:27.197Z,99.99
2022-08-04T04:22:28.102Z,99.99
2022-08-04T04:23:29.169Z,99.99
2022-08-04T04:24:38.161Z,99.99
2022-08-04T04:25:30.381Z,99.99
2022-08-04T04:26:30.276Z,99.99
2022-08-04T04:27:30.904Z,99.99
2022-08-04T04:28:50.441Z,99.99
2022-08-04T04:29:32.690Z,99.99
2022-08-04T04:30:33.189Z,99.99
2022-08-04T04:31:33.704Z,99.99
2022-08-04T04:32:34.201Z,99.99
2022-08-04T04:33:34.487Z,99.99
2022-08-04T04:34:35.688Z,99.99
2022-08-04T04:35:36.086Z,99.99
2022-08-04T04:36:36.324Z,99.99
2022-08-04T04:37:36.247Z,99.99
2022-08-04T04:38:37.178Z,99.99
2022-08-04T04:39:37.871Z,99.99
2022-08-04T04:40:38.185Z,99.99
2022-08-04T04:41:38.607Z,99.99
2022-08-04T04:42:39.534Z,99.99
2022-08-04T04:43:58.890Z,99.99
2022-08-04T04:44:59.119Z,99.78
2022-08-04T04:45:59.350Z,99.88
2022-08-04T04:47:00.438Z,99.93
2022-08-04T04:48:15.476Z,99.93
2022-08-04T04:49:01.700Z,99.64
2022-08-04T04:50:02.010Z,99.84
2022-08-04T04:51:02.632Z,99.93
2022-08-04T04:52:03.854Z,99.16
2022-08-04T04:53:03.771Z,99.26
2022-08-04T04:54:06.131Z,99.26
2022-08-04T04:55:05.627Z,99.06
2022-08-04T04:56:05.833Z,99.54
2022-08-04T04:57:06.503Z,99.06
2022-08-04T04:58:07.450Z,99.35
2022-08-04T04:59:07.881Z,98.97
2022-08-04T05:00:08.782Z,99.54
2022-08-04T05:01:09.997Z,98.68
2022-08-04T05:02:10.197Z,99.16
2022-08-04T05:03:14.820Z,99.06
2022-08-04T05:04:11.305Z,99.26
2022-08-04T05:05:11.208Z,98.87
2022-08-04T05:06:12.105Z,98.97
2022-08-04T05:07:12.639Z,98.87
2022-08-04T05:08:53.810Z,98.87
2022-08-04T05:09:13.744Z,99.06
2022-08-04T05:10:13.966Z,98.97
2022-08-04T05:11:14.175Z,98.77
2022-08-04T05:14:41.298Z,98.39
2022-08-04T05:14:58.867Z,98.63
2022-08-04T05:16:00.178Z,98.44
2022-08-04T05:17:01.149Z,99.02
2022-08-04T05:18:01.814Z,98.54
2022-08-04T05:19:02.021Z,98.72
2022-08-04T05:20:03.024Z,98.82
2022-08-04T05:21:02.927Z,98.15
2022-08-04T05:22:03.433Z,98.34
2022-08-04T05:23:03.626Z,98.34
2022-08-04T05:24:04.234Z,98.15
2022-08-04T05:25:04.733Z,97.96
2022-08-04T05:26:06.353Z,97.57
2022-08-04T05:27:06.562Z,97.47
2022-08-04T05:28:06.783Z,97.67
2022-08-04T05:29:07.706Z,97.38
2022-08-04T05:30:08.933Z,97.57
2022-08-04T05:31:09.138Z,98.1
2022-08-04T05:32:10.038Z,97.81
2022-08-04T05:33:10.567Z,97.33
2022-08-04T05:34:11.201Z,97.04
2022-08-04T05:35:11.693Z,96.89
2022-08-04T05:37:17.306Z,97.14
2022-08-04T05:38:18.479Z,97.04
2022-08-04T05:39:19.509Z,97.33
2022-08-04T05:40:20.279Z,97.42
2022-08-04T05:41:21.206Z,97.52
2022-08-04T05:42:21.445Z,98
2022-08-04T05:43:21.367Z,97.81
2022-08-04T05:44:21.870Z,97.52
2022-08-04T05:45:22.074Z,98
2022-08-04T05:46:22.505Z,97.24
2022-08-04T05:47:23.569Z,97.14
2022-08-04T05:48:23.742Z,96.66
2022-08-04T05:49:27.742Z,96.17
2022-08-04T05:50:24.953Z,96.94
2022-08-04T05:51:25.252Z,96.27
2022-08-04T05:52:26.182Z,96.56
2022-08-04T05:53:26.400Z,96.7
2022-08-04T05:54:26.605Z,96.61
2022-08-04T05:56:03.945Z,96.7
2022-08-04T05:56:28.571Z,96.8
2022-08-04T05:57:29.237Z,97.77
2022-08-04T05:58:29.204Z,96.8
2022-08-04T05:59:29.700Z,95.93
2022-08-04T06:00:51.416Z,95.74
2022-08-04T06:01:31.021Z,95.64
2022-08-04T06:02:31.257Z,95.54
2022-08-04T06:03:31.754Z,95.06
2022-08-04T06:04:32.401Z,94.96
2022-08-04T06:05:32.329Z,94.68
2022-08-04T06:06:34.115Z,94.87
2022-08-04T06:07:33.709Z,95.4
2022-08-04T06:08:33.808Z,95.88
2022-08-04T06:09:34.030Z,95.21
2022-08-04T06:10:35.493Z,94.43
2022-08-04T06:11:59.220Z,94.53
2022-08-04T06:12:35.570Z,93.18
2022-08-04T06:13:55.483Z,93.08
2022-08-04T06:14:36.983Z,94.05
2022-08-04T06:15:38.009Z,94.43
2022-08-04T06:16:38.207Z,94.34
2022-08-04T06:20:22.230Z,92.74
2022-08-04T06:21:26.207Z,92.65
2022-08-04T06:22:26.431Z,92.21
2022-08-04T06:23:26.874Z,91.83
2022-08-04T06:24:27.347Z,92.11
2022-08-04T06:25:28.267Z,92.79
2022-08-04T06:26:28.876Z,92.5
2022-08-04T06:27:29.504Z,92.21
2022-08-04T06:28:30.412Z,91.35
2022-08-04T06:29:31.421Z,91.44
2022-08-04T06:30:31.769Z,91.67
2022-08-04T06:32:38.724Z,92.11
2022-08-04T06:33:10.527Z,91.87
2022-08-04T06:34:10.044Z,91.87
2022-08-04T06:35:10.946Z,91.09
2022-08-04T06:36:11.878Z,91.19
2022-08-04T06:37:12.373Z,90.23
2022-08-04T06:38:12.712Z,91.09
2022-08-04T06:39:13.336Z,91
2022-08-04T06:40:35.237Z,90.61
2022-08-04T06:41:13.556Z,91
2022-08-04T06:42:27.118Z,91.49
2022-08-04T06:43:15.622Z,92.74
2022-08-04T06:44:16.321Z,91.97
2022-08-04T06:45:16.518Z,91.49
2022-08-04T06:46:16.741Z,91.67
2022-08-04T06:47:19.764Z,91.19
2022-08-04T06:48:16.980Z,92.21
2022-08-04T06:49:17.704Z,91.33
2022-08-04T06:51:48.657Z,90.08
2022-08-04T06:52:06.718Z,90.08
2022-08-04T06:53:07.048Z,89.79
2022-08-04T06:54:07.297Z,89.89
2022-08-04T06:55:08.591Z,89.01
2022-08-04T06:56:09.102Z,89.5
2022-08-04T06:57:09.732Z,89.98
2022-08-04T06:58:10.537Z,90.47
2022-08-04T06:59:10.750Z,92.3
2022-08-04T07:00:10.882Z,91.24
2022-08-04T07:01:11.922Z,90.8
2022-08-04T07:02:12.626Z,91.05
2022-08-04T07:03:13.125Z,89.15
2022-08-04T07:04:14.046Z,89.06
2022-08-04T07:05:14.970Z,90.9
2022-08-04T07:06:20.301Z,91.19
2022-08-04T07:07:16.222Z,90.12
2022-08-04T07:08:16.941Z,88.62
2022-08-04T07:09:17.590Z,87.46
2022-08-04T07:10:27.106Z,86.49
2022-08-04T07:11:18.692Z,86.59
2022-08-04T07:12:19.558Z,85.82
2022-08-04T07:13:19.617Z,86.4
2022-08-04T07:14:20.248Z,85.82
2022-08-04T07:15:20.594Z,87.46
2022-08-04T07:16:21.564Z,85.82
2022-08-04T07:17:22.927Z,86.4
2022-08-04T07:18:23.239Z,86.54
2022-08-04T07:19:24.705Z,85.37
2022-08-04T07:20:40.880Z,85.76
2022-08-04T07:21:24.569Z,86.24
2022-08-04T07:22:30.988Z,85.41
2022-08-04T07:23:25.415Z,84.35
2022-08-04T07:24:25.744Z,84.93
2022-08-04T07:25:59.331Z,83.48
2022-08-04T07:26:29.971Z,83.58
2022-08-04T07:27:53.614Z,84.16
2022-08-04T07:28:31.846Z,85.17
2022-08-04T07:29:32.107Z,84.49
2022-08-04T07:30:32.316Z,84.68
2022-08-04T07:31:39.683Z,83.81
2022-08-04T07:32:33.218Z,84.2
2022-08-04T07:33:33.955Z,82.35
2022-08-04T07:34:37.200Z,81.91
2022-08-04T07:36:11.825Z,81.33
2022-08-04T07:36:50.732Z,81.23
2022-08-04T07:37:45.597Z,81.91
2022-08-04T07:38:46.229Z,83.27
2022-08-04T07:39:53.109Z,80.36
2022-08-04T07:40:38.688Z,80.17
2022-08-04T07:41:42.575Z,80.17
2022-08-04T07:42:39.031Z,80.3
2022-08-04T07:43:40.278Z,80.79
2022-08-04T07:44:40.873Z,80.3
2022-08-04T07:45:41.002Z,80.01
2022-08-04T07:46:42.227Z,80.11
2022-08-04T07:47:42.195Z,80.11
2022-08-04T07:48:42.702Z,79.72
2022-08-04T07:50:01.592Z,80.88
2022-08-04T07:50:44.938Z,79.53
2022-08-04T07:51:45.573Z,80.5
2022-08-04T07:52:54.527Z,80.69
2022-08-04T07:54:41.961Z,79.66
2022-08-04T07:55:42.466Z,80.73
2022-08-04T07:56:42.710Z,80.34
2022-08-04T07:57:46.279Z,80.34
2022-08-04T07:58:44.505Z,79.57
2022-08-04T07:59:49.655Z,79.66
2022-08-04T08:00:46.026Z,79.57
2022-08-04T08:01:46.578Z,78.92
2022-08-04T08:02:47.022Z,78.15
2022-08-04T08:03:47.369Z,77.37
2022-08-04T08:04:48.198Z,77.18
2022-08-04T08:06:39.950Z,75.43
2022-08-04T08:06:59.976Z,75.62
2022-08-04T08:08:00.983Z,75.47
2022-08-04T08:09:01.960Z,75.57
2022-08-04T08:10:02.245Z,75.27
2022-08-04T08:11:02.494Z,75.47
2022-08-04T08:12:55.450Z,75.47
2022-08-04T08:13:12.102Z,75.41
2022-08-04T08:14:13.390Z,75.51
2022-08-04T08:15:16.050Z,76.18
2022-08-04T08:16:14.563Z,76.18
2022-08-04T08:17:14.792Z,75.51
2022-08-04T08:18:15.383Z,74.54
2022-08-04T08:19:16.317Z,75.12
2022-08-04T08:20:34.313Z,74.86
2022-08-04T08:21:17.519Z,74.86
2022-08-04T08:22:18.155Z,74.48
2022-08-04T08:23:19.078Z,72.76
2022-08-04T08:24:19.776Z,71.69
2022-08-04T08:25:20.263Z,72.53
2022-08-04T08:26:20.771Z,73.15
2022-08-04T08:27:21.745Z,73.5
2022-08-04T08:28:22.537Z,73.34
2022-08-04T08:29:22.895Z,72.37
2022-08-04T08:30:23.803Z,71.88
2022-08-04T08:31:55.774Z,72.72
2022-08-04T08:32:25.543Z,73.5
2022-08-04T08:33:25.793Z,74.18
2022-08-04T08:34:32.894Z,73.79
2022-08-04T08:35:27.122Z,73.83
2022-08-04T08:36:27.545Z,74.02
2022-08-04T08:37:28.241Z,73.73
2022-08-04T08:38:27.910Z,74.61
2022-08-04T08:39:30.359Z,72.37
2022-08-04T08:40:46.463Z,71.11
2022-08-04T08:41:29.409Z,71.59
2022-08-04T08:42:30.020Z,70.72
2022-08-04T08:44:19.034Z,70.13
2022-08-04T08:44:57.891Z,70.91
2022-08-04T08:45:55.261Z,72.76
2022-08-04T08:46:55.995Z,71.88
2022-08-04T08:48:12.032Z,71.04
2022-08-04T08:48:57.694Z,69.68
2022-08-04T08:50:07.961Z,69.1
2022-08-04T08:50:59.626Z,68.12
2022-08-04T08:52:00.136Z,68.64
2022-08-04T08:53:07.895Z,68.93
2022-08-04T08:54:01.553Z,68.84
2022-08-04T08:55:02.404Z,67.18
2022-08-04T08:56:02.618Z,67.9
2022-08-04T08:57:03.543Z,67.41
2022-08-04T08:58:06.025Z,66.93
2022-08-04T08:59:04.298Z,65.88
2022-08-04T09:00:05.132Z,64.23
2022-08-04T09:01:05.119Z,62.86
2022-08-04T09:02:06.521Z,62.89
2022-08-04T09:03:10.761Z,63.21
2022-08-04T09:04:08.129Z,62.95
2022-08-04T09:05:08.433Z,62.11
2022-08-04T09:06:08.733Z,60.64
2022-08-04T09:07:09.382Z,60.18
2022-08-04T09:08:10.423Z,60.02
2022-08-04T09:09:11.659Z,59.07
2022-08-04T09:10:12.314Z,60.08
2022-08-04T09:11:14.735Z,59.78
2022-08-04T09:12:13.348Z,57.46
2022-08-04T09:13:13.810Z,57.17
2022-08-04T09:14:14.042Z,55.33
2022-08-04T09:15:14.559Z,56.12
2022-08-04T09:16:15.015Z,55.14
2022-08-04T09:17:15.252Z,52.69
2022-08-04T09:18:15.731Z,52.89
2022-08-04T09:19:43.160Z,53.57
2022-08-04T09:20:15.866Z,52.89
2022-08-04T09:21:17.077Z,52.89
2022-08-04T09:22:18.162Z,52.13
2022-08-04T09:23:17.399Z,52.52
2022-08-04T09:24:41.243Z,52.74
2022-08-04T09:25:18.196Z,53.06
2022-08-04T09:26:18.662Z,53.58
2022-08-04T09:27:19.979Z,51.42
2022-08-04T09:28:43.967Z,51.05
2022-08-04T09:29:20.484Z,49.7
2022-08-04T09:30:21.804Z,51.37
2022-08-04T09:31:22.467Z,51.4
2022-08-04T09:32:22.483Z,50.93
2022-08-04T09:33:44.213Z,52.62
2022-08-04T09:34:24.009Z,51.05
2022-08-04T09:35:24.241Z,49.11
2022-08-04T09:36:31.359Z,49.11
2022-08-04T09:37:25.621Z,49.9
2022-08-04T09:38:25.506Z,49.23
2022-08-04T09:39:27.535Z,49.62
2022-08-04T09:40:58.651Z,50.34
2022-08-04T09:41:58.417Z,50.76
2022-08-04T09:43:00.980Z,49.77
2022-08-04T09:45:01.712Z,47.9
2022-08-04T09:45:50.561Z,47.5
2022-08-04T09:46:49.786Z,48.1
2022-08-04T09:47:50.124Z,47.7
2022-08-04T09:48:50.417Z,47.5
2022-08-04T09:49:51.193Z,47.23
2022-08-04T09:50:55.975Z,46.84
2022-08-04T09:52:03.751Z,47.13
2022-08-04T09:52:53.666Z,47.65
2022-08-04T09:53:54.941Z,47.65
2022-08-04T09:54:55.192Z,50.12
2022-08-04T09:56:02.948Z,46.69
2022-08-04T09:56:56.474Z,44.81
2022-08-04T09:57:56.802Z,44.89
2022-08-04T09:58:56.761Z,44.89
2022-08-04T09:59:57.277Z,44.98
2022-08-04T10:00:57.501Z,45.56
2022-08-04T10:02:05.206Z,46.15
2022-08-04T10:02:59.020Z,45.75
2022-08-04T10:03:59.751Z,46.22
2022-08-04T10:04:59.970Z,46.15
2022-08-04T10:06:00.336Z,45.26
2022-08-04T10:07:00.976Z,44.18
2022-08-04T10:08:22.561Z,45.12
2022-08-04T10:09:22.804Z,46.3
2022-08-04T10:10:22.739Z,46.77
2022-08-04T10:11:23.702Z,47.66
2022-08-04T10:12:23.687Z,46.67
2022-08-04T10:13:24.620Z,46.84
2022-08-04T10:14:28.373Z,48.42
2022-08-04T10:15:30.113Z,48.79
2022-08-04T10:16:27.402Z,50.07
2022-08-04T10:17:28.117Z,49.97
2022-08-04T10:18:28.401Z,48.42
2022-08-04T10:19:28.664Z,47.63
2022-08-04T10:20:56.908Z,47.73
2022-08-04T10:21:29.339Z,48.71
2022-08-04T10:22:55.865Z,49.52
2022-08-04T10:23:55.517Z,48.35
2022-08-04T10:24:35.468Z,48.32
2022-08-04T10:26:11.389Z,49.58
2022-08-04T10:26:36.621Z,48.47
2022-08-04T10:27:36.849Z,49.06
2022-08-04T10:28:37.583Z,49.65
2022-08-04T10:29:38.526Z,47.98
2022-08-04T10:30:40.837Z,48.08
2022-08-04T10:31:39.081Z,48.86
2022-08-04T10:32:42.919Z,48.45
2022-08-04T10:33:40.496Z,49.7
2022-08-04T10:34:41.083Z,49.6
2022-08-04T10:35:42.056Z,49.7
2022-08-04T10:36:42.995Z,51.47
2022-08-04T10:38:06.552Z,50.46
2022-08-04T10:38:54.888Z,50.46
2022-08-04T10:39:55.861Z,50.37
2022-08-04T10:40:56.548Z,51.34
2022-08-04T10:41:59.670Z,49.51
2022-08-04T10:42:58.280Z,50.85
2022-08-04T10:43:59.429Z,50.76
2022-08-04T10:45:03.260Z,51.15
2022-08-04T10:46:03.747Z,51.74
2022-08-04T10:47:00.692Z,53.04
2022-08-04T10:48:01.403Z,49.6
2022-08-04T10:49:01.473Z,49.01
2022-08-04T10:50:02.124Z,49.9
2022-08-04T10:51:02.443Z,49.23
2022-08-04T10:52:05.120Z,49.11
2022-08-04T10:53:03.497Z,49.8
2022-08-04T10:54:03.927Z,49.68
2022-08-04T10:55:04.146Z,49.58
2022-08-04T10:56:13.535Z,49.48
2022-08-04T10:57:05.899Z,48.99
2022-08-04T10:58:06.468Z,48.86
2022-08-04T10:59:06.307Z,48.57
2022-08-04T11:00:09.439Z,49.55
2022-08-04T11:01:07.955Z,49.46
2022-08-04T11:02:16.484Z,49.07
2022-08-04T11:03:13.769Z,50.34
2022-08-04T11:04:14.348Z,49.55
2022-08-04T11:05:14.833Z,49.36
2022-08-04T11:06:15.171Z,48.38
2022-08-04T11:07:16.175Z,48.77
2022-08-04T11:08:20.859Z,49.55
2022-08-04T11:09:20.613Z,48.94
2022-08-04T11:10:18.215Z,48.45
2022-08-04T11:11:19.178Z,48.65
2022-08-04T11:12:20.155Z,49.14
2022-08-04T11:13:35.256Z,49.73
2022-08-04T11:14:21.764Z,50.83
2022-08-04T11:15:22.744Z,52.01
2022-08-04T11:16:23.667Z,52.01
2022-08-04T11:17:24.144Z,54.49
2022-08-04T11:18:24.458Z,51.47
2022-08-04T11:19:42.932Z,52.25
2022-08-04T11:20:45.161Z,50.61
2022-08-04T11:21:45.915Z,47.07
2022-08-04T11:22:46.128Z,48.65
2022-08-04T11:23:46.570Z,50.71
2022-08-04T11:24:46.500Z,50.9
2022-08-04T11:25:51.214Z,51.1
2022-08-04T11:26:48.349Z,51.03
2022-08-04T11:27:48.583Z,48.67
2022-08-04T11:28:56.006Z,49.55
2022-08-04T11:29:52.114Z,51.72
2022-08-04T11:30:53.045Z,49.75
2022-08-04T11:31:57.340Z,50.04
2022-08-04T11:32:53.873Z,48.27
2022-08-04T11:33:54.843Z,50.24
2022-08-04T11:34:58.345Z,50.34
2022-08-04T11:35:56.621Z,48.3
2022-08-04T11:36:56.844Z,50.54
2022-08-04T11:37:57.807Z,49.65
2022-08-04T11:38:58.101Z,48.89
2022-08-04T11:39:58.743Z,48.67
2022-08-04T11:41:08.416Z,48.79
2022-08-04T11:42:00.068Z,49.95
2022-08-04T11:43:01.025Z,48.15
2022-08-04T11:44:12.433Z,49.43
2022-08-04T11:45:02.130Z,48.35
2022-08-04T11:46:02.125Z,47.66
2022-08-04T11:47:03.440Z,47.27
2022-08-04T11:48:03.386Z,48.35
2022-08-04T11:49:03.604Z,48.52
2022-08-04T11:50:04.049Z,48.89
2022-08-04T11:51:06.736Z,49.68
2022-08-04T11:52:05.954Z,50.56
2022-08-04T11:53:07.078Z,50.37
2022-08-04T11:54:07.736Z,51.05
2022-08-04T11:55:08.263Z,52.42
2022-08-04T11:56:36.264Z,49.9
2022-08-04T11:57:09.053Z,49.08
2022-08-04T11:58:09.899Z,50.37
2022-08-04T11:59:10.115Z,49.58
2022-08-04T12:00:13.153Z,49.38
2022-08-04T12:01:12.092Z,50.95
2022-08-04T12:02:14.896Z,49.58
2022-08-04T12:03:13.910Z,49.77
2022-08-04T12:04:14.532Z,48.99
2022-08-04T12:05:41.849Z,49.38
2022-08-04T12:06:16.551Z,49.87
2022-08-04T12:07:47.879Z,49.29
2022-08-04T12:08:17.821Z,49.58
2022-08-04T12:09:18.068Z,48.69
2022-08-04T12:10:37.795Z,48.79
2022-08-04T12:11:19.853Z,48.13
2022-08-04T12:12:20.101Z,47.13
2022-08-04T12:13:20.336Z,47.05
2022-08-04T12:14:21.000Z,48.72
2022-08-04T12:15:21.217Z,47.83
2022-08-04T12:16:21.857Z,46.46
2022-08-04T12:17:22.815Z,46.44
2022-08-04T12:18:23.966Z,46.73
2022-08-04T12:19:23.131Z,46.85
2022-08-04T12:21:21.220Z,47.74
2022-08-04T12:22:29.850Z,48.33
2022-08-04T12:23:22.983Z,49.9
2022-08-04T12:24:23.756Z,49.11
2022-08-04T12:25:23.683Z,46.75
2022-08-04T12:26:24.645Z,47.34
2022-08-04T12:27:31.274Z,47.64
2022-08-04T12:28:25.219Z,47.74
2022-08-04T12:29:26.243Z,45.01
2022-08-04T12:31:11.229Z,45.48
2022-08-04T12:31:59.706Z,44.79
2022-08-04T12:33:00.659Z,46.36
2022-08-04T12:34:11.101Z,46.85
2022-08-04T12:35:02.318Z,43.9
2022-08-04T12:36:20.583Z,42.63
2022-08-04T12:37:03.256Z,46.75
2022-08-04T12:38:03.493Z,46.75
2022-08-04T12:39:04.264Z,44.79
2022-08-04T12:40:36.266Z,43.71
2022-08-04T12:41:05.658Z,45.09
2022-08-04T12:42:06.687Z,46.78
2022-08-04T12:43:07.278Z,47.44
2022-08-04T12:44:07.518Z,48.55
2022-08-04T12:45:07.400Z,51.3
2022-08-04T12:46:08.337Z,49.55
2022-08-04T12:47:32.323Z,50.44
2022-08-04T12:48:10.415Z,50.93
2022-08-04T12:49:10.750Z,49.55
2022-08-04T12:50:11.814Z,49.28
2022-08-04T12:52:07.239Z,47.63
2022-08-04T12:53:10.160Z,48.42
2022-08-04T12:54:10.836Z,47.85
2022-08-04T12:55:12.208Z,48.32
2022-08-04T12:56:12.926Z,46.87
2022-08-04T12:57:13.891Z,46.18
2022-08-04T12:58:14.492Z,46.47
2022-08-04T12:59:18.382Z,47.38
2022-08-04T13:00:15.316Z,43.74
2022-08-04T13:02:15.214Z,45.09
2022-08-04T13:02:32.824Z,45.47
2022-08-04T13:03:33.452Z,51.57
2022-08-04T13:04:34.858Z,52.06
2022-08-04T13:05:34.478Z,46.94
2022-08-04T13:06:34.786Z,45.07
2022-08-04T13:07:35.153Z,45.56
2022-08-04T13:08:37.770Z,47.91
2022-08-04T13:09:36.982Z,47.22
2022-08-04T13:10:37.898Z,45.37
2022-08-04T13:11:39.144Z,45.35
2022-08-04T13:12:39.614Z,45.74
2022-08-04T13:13:40.917Z,47.69
2022-08-04T13:14:41.081Z,46.11
2022-08-04T13:16:01.899Z,45.42
2022-08-04T13:16:41.143Z,45.92
2022-08-04T13:17:45.025Z,45.79